Time;durP1;ratioP1;P1;durP2;ratioP2;P2;SDS_P1;SDS_P2;PMS_P1;PMS_P2;Temp;Humidity;BMP_temperature;BMP_pressure;BME280_temperature;BME280_humidity;BME280_pressure;Samples;Min_cycle;Max_cycle;Signal;HPM_P1;HPM_P2
2023/03/21 00:01:39;;;;;;;19.70;12.30;;;;;;;6.53;100.00;96600.13;10410770;28;20216;-62
2023/03/21 00:06:39;;;;;;;18.57;11.50;;;;;;;6.52;100.00;96606.28;10410565;28;20224;-60
2023/03/21 00:11:39;;;;;;;17.90;11.77;;;;;;;6.57;100.00;96593.69;10403404;28;20243;-60
2023/03/21 00:16:40;;;;;;;17.43;12.00;;;;;;;6.64;100.00;96594.00;10401287;28;20189;-60
2023/03/21 00:21:41;;;;;;;21.03;12.27;;;;;;;6.51;100.00;96582.06;10404301;28;20291;-62
2023/03/21 00:26:42;;;;;;;18.97;11.80;;;;;;;6.53;100.00;96593.16;10410316;28;20220;-62
2023/03/21 00:31:42;;;;;;;18.20;11.57;;;;;;;6.50;100.00;96584.78;10410872;28;20204;-61
2023/03/21 00:36:42;;;;;;;19.20;11.73;;;;;;;6.48;100.00;96586.69;10410459;28;20189;-62
2023/03/21 00:41:43;;;;;;;18.20;11.97;;;;;;;6.47;100.00;96588.47;10409764;28;20358;-62
2023/03/21 00:46:43;;;;;;;21.33;12.20;;;;;;;6.53;100.00;96579.31;10410425;28;20189;-62
2023/03/21 00:51:44;;;;;;;20.23;12.97;;;;;;;6.51;100.00;96582.06;10409719;28;20754;-62
2023/03/21 00:56:44;;;;;;;26.97;14.27;;;;;;;6.40;100.00;96584.75;10397804;28;20683;-62
2023/03/21 01:01:45;;;;;;;23.13;13.77;;;;;;;6.42;100.00;96583.69;10355803;28;20778;-60
2023/03/21 01:06:46;;;;;;;21.53;14.60;;;;;;;6.34;100.00;96588.72;10375464;28;20189;-59
2023/03/21 01:11:47;;;;;;;19.87;14.37;;;;;;;6.31;100.00;96586.41;10466494;22;20768;-56
2023/03/21 01:16:49;;;;;;;21.73;13.83;;;;;;;6.31;100.00;96578.59;10457457;28;20202;-57
2023/03/21 01:21:49;;;;;;;25.43;12.87;;;;;;;6.25;100.00;96579.94;10457797;28;20256;-56
2023/03/21 01:26:49;;;;;;;22.60;13.13;;;;;;;6.17;100.00;96579.78;10439479;28;20192;-56
2023/03/21 01:31:50;;;;;;;20.70;12.77;;;;;;;6.23;100.00;96570.63;10439031;28;20299;-53
2023/03/21 01:36:51;;;;;;;21.27;12.83;;;;;;;6.07;100.00;96565.94;10456852;28;20208;-57
2023/03/21 01:41:53;;;;;;;23.73;14.03;;;;;;;6.17;100.00;96566.78;10438519;28;20243;-58
2023/03/21 01:46:58;;;;;;;25.23;15.20;;;;;;;6.14;100.00;96568.81;10438731;28;20188;-54
2023/03/21 01:52:33;;;;;;;22.30;13.63;;;;;;;6.11;100.00;96569.06;10453758;28;20219;-51
2023/03/21 01:57:38;;;;;;;23.97;13.40;;;;;;;6.04;100.00;96550.59;10421518;28;20636;-54
2023/03/21 02:02:50;;;;;;;21.77;12.47;;;;;;;6.12;100.00;96555.13;10421468;28;20299;-55
2023/03/21 02:08:06;;;;;;;20.47;13.27;;;;;;;6.18;100.00;96544.19;10437720;28;20183;-53
2023/03/21 02:13:10;;;;;;;22.77;13.40;;;;;;;6.15;100.00;96544.47;10436419;28;20781;-57
2023/03/21 02:18:40;;;;;;;20.10;12.37;;;;;;;6.03;100.00;96544.56;10437222;28;20424;-56
2023/03/21 02:24:14;;;;;;;24.47;13.60;;;;;;;6.01;100.00;96548.25;10437251;28;20200;-56
2023/03/21 02:29:40;;;;;;;21.70;14.27;;;;;;;5.91;100.00;96550.75;10419648;28;20212;-58
2023/03/21 02:35:01;;;;;;;19.27;12.37;;;;;;;5.91;100.00;96537.75;10436640;28;20202;-56
2023/03/21 02:40:11;;;;;;;19.90;12.60;;;;;;;5.86;100.00;96542.53;10436436;28;20265;-56
2023/03/21 02:45:25;;;;;;;19.33;12.53;;;;;;;5.92;100.00;96531.63;10419710;28;20682;-57
2023/03/21 02:50:42;;;;;;;20.50;12.27;;;;;;;5.76;100.00;96546.88;10386519;28;20232;-59
2023/03/21 02:55:44;;;;;;;23.27;13.23;;;;;;;5.56;100.00;96533.81;10394892;28;20200;-51
2023/03/21 03:00:46;;;;;;;17.60;12.10;;;;;;;5.52;100.00;96533.22;10394793;28;20263;-58
2023/03/21 03:05:56;;;;;;;20.27;12.73;;;;;;;5.41;100.00;96538.53;10378823;28;20201;-58
2023/03/21 03:11:01;;;;;;;21.10;12.03;;;;;;;5.34;100.00;96540.81;10418002;28;20232;-53
2023/03/21 03:16:27;;;;;;;16.73;11.63;;;;;;;5.17;100.00;96537.00;10435259;28;20192;-55
2023/03/21 03:21:41;;;;;;;21.67;12.27;;;;;;;5.36;100.00;96533.72;10453020;28;20219;-55
2023/03/21 03:26:51;;;;;;;17.80;10.53;;;;;;;5.18;100.00;96517.88;10434848;28;20184;-56
2023/03/21 03:31:59;;;;;;;12.50;8.37;;;;;;;5.04;100.00;96513.03;10418586;28;20234;-56
2023/03/21 03:37:06;;;;;;;11.00;7.60;;;;;;;5.02;100.00;96521.88;10435294;28;20561;-59
2023/03/21 03:42:15;;;;;;;15.13;7.83;;;;;;;5.03;100.00;96521.75;10418543;28;20208;-58
2023/03/21 03:47:37;;;;;;;11.57;8.20;;;;;;;4.88;100.00;96525.63;10434055;28;20179;-59
2023/03/21 03:52:44;;;;;;;11.83;7.90;;;;;;;4.85;100.00;96544.03;10418126;28;20203;-59
2023/03/21 03:57:46;;;;;;;14.57;9.07;;;;;;;5.17;100.00;96544.78;10434053;28;20577;-59
2023/03/21 04:02:47;;;;;;;19.07;10.63;;;;;;;5.12;100.00;96546.16;10433317;28;20208;-59
2023/03/21 04:07:52;;;;;;;16.63;9.17;;;;;;;4.82;100.00;96551.13;10433416;28;20275;-59
2023/03/21 04:12:59;;;;;;;12.40;8.00;;;;;;;4.94;100.00;96545.88;10433981;28;20235;-59
2023/03/21 04:18:07;;;;;;;11.70;7.80;;;;;;;5.10;100.00;96542.84;10451244;28;20208;-59
2023/03/21 04:23:08;;;;;;;12.43;7.93;;;;;;;5.08;100.00;96547.34;10433756;28;20662;-59
2023/03/21 04:28:09;;;;;;;92.73;38.40;;;;;;;4.96;100.00;96541.38;10451310;28;20207;-59
2023/03/21 04:33:42;;;;;;;19.27;11.70;;;;;;;4.68;100.00;96543.63;10429099;28;20192;-59
2023/03/21 04:38:44;;;;;;;22.10;12.23;;;;;;;4.70;100.00;96540.91;10441185;28;20224;-58
2023/03/21 04:43:46;;;;;;;17.60;8.87;;;;;;;4.64;100.00;96543.06;10458773;28;20184;-59
2023/03/21 04:48:47;;;;;;;14.00;8.40;;;;;;;4.77;100.00;96542.06;10440625;28;20208;-59
2023/03/21 04:53:48;;;;;;;20.37;10.90;;;;;;;4.64;100.00;96531.88;10440452;28;20249;-59
2023/03/21 04:58:48;;;;;;;14.17;9.27;;;;;;;4.58;100.00;96534.91;10457996;28;20219;-59
2023/03/21 05:03:49;;;;;;;14.30;7.40;;;;;;;4.56;100.00;96531.63;10439268;28;20291;-59
2023/03/21 05:08:49;;;;;;;11.53;7.03;;;;;;;4.57;100.00;96531.50;10456387;28;20239;-58
2023/03/21 05:13:50;;;;;;;10.67;6.83;;;;;;;4.74;100.00;96521.56;10457731;28;20184;-59
2023/03/21 05:18:52;;;;;;;17.90;7.60;;;;;;;4.71;100.00;96540.78;10456869;28;20744;-58
2023/03/21 05:23:53;;;;;;;12.53;7.30;;;;;;;4.72;100.00;96539.84;10439928;28;20326;-54
2023/03/21 05:28:54;;;;;;;10.00;6.93;;;;;;;4.83;100.00;96542.38;10439051;28;20338;-59
2023/03/21 05:33:55;;;;;;;17.47;8.03;;;;;;;4.70;100.00;96539.16;10439108;28;20199;-59
2023/03/21 05:38:55;;;;;;;11.77;6.97;;;;;;;4.86;100.00;96536.13;10456696;28;20904;-59
2023/03/21 05:43:56;;;;;;;10.73;6.30;;;;;;;4.91;100.00;96536.56;10438359;28;20640;-58
2023/03/21 05:48:56;;;;;;;15.53;7.07;;;;;;;4.99;100.00;96530.72;10438139;28;20690;-57
2023/03/21 05:53:58;;;;;;;26.67;15.87;;;;;;;5.03;100.00;96526.94;10441150;28;20192;-58
2023/03/21 05:58:59;;;;;;;12.47;8.93;;;;;;;5.08;100.00;96531.75;10443644;28;20591;-59
2023/03/21 06:04:00;;;;;;;35.43;17.03;;;;;;;5.11;100.00;96531.50;10435612;28;20211;-59
2023/03/21 06:09:03;;;;;;;11.10;7.80;;;;;;;4.87;100.00;96536.94;10430595;28;20253;-58
2023/03/21 06:14:05;;;;;;;42.63;20.40;;;;;;;5.00;100.00;96553.97;10437804;28;20208;-58
2023/03/21 06:19:06;;;;;;;13.63;9.17;;;;;;;4.78;100.00;96548.91;10436997;28;20625;-58
2023/03/21 06:24:14;;;;;;;13.83;8.63;;;;;;;5.03;100.00;96550.31;10437139;28;20188;-57
2023/03/21 06:29:15;;;;;;;14.97;9.20;;;;;;;5.23;100.00;96547.84;10436425;28;20211;-55
2023/03/21 06:34:21;;;;;;;14.67;8.77;;;;;;;5.56;100.00;96544.22;10423642;28;20185;-58
2023/03/21 06:39:21;;;;;;;13.03;8.80;;;;;;;5.43;100.00;96546.19;10419062;28;20216;-53
2023/03/21 06:44:23;;;;;;;13.10;7.97;;;;;;;5.45;100.00;96550.31;10435538;28;20576;-56
2023/03/21 06:49:31;;;;;;;16.87;6.53;;;;;;;5.81;100.00;96557.72;10425752;28;20204;-56
2023/03/21 06:54:39;;;;;;;10.20;6.83;;;;;;;5.79;100.00;96563.06;10418539;28;20183;-53
2023/03/21 06:59:47;;;;;;;12.20;6.30;;;;;;;5.63;100.00;96570.50;10433878;28;20306;-58
2023/03/21 07:04:56;;;;;;;8.77;6.80;;;;;;;5.80;100.00;96574.25;10434610;28;20559;-58
2023/03/21 07:10:00;;;;;;;13.27;8.90;;;;;;;5.83;100.00;96576.59;10435178;28;20244;-56
2023/03/21 07:15:07;;;;;;;19.43;10.13;;;;;;;5.85;100.00;96585.09;10431729;28;21540;-55
2023/03/21 07:20:08;;;;;;;18.07;10.73;;;;;;;5.78;100.00;96579.59;10428694;22;20298;-60
2023/03/21 07:25:09;;;;;;;15.03;11.90;;;;;;;5.70;100.00;96576.81;10404190;28;20231;-62
2023/03/21 07:30:14;;;;;;;17.90;13.47;;;;;;;5.61;100.00;96582.81;10387475;28;20219;-61
2023/03/21 07:35:16;;;;;;;18.53;13.43;;;;;;;5.74;100.00;96578.19;10403700;28;20195;-60
2023/03/21 07:40:17;;;;;;;15.73;11.87;;;;;;;6.03;100.00;96587.94;10390320;28;20617;-62
2023/03/21 07:45:20;;;;;;;13.70;10.53;;;;;;;6.06;100.00;96582.47;10389801;28;20197;-62
2023/03/21 07:50:21;;;;;;;12.17;9.40;;;;;;;5.86;100.00;96578.94;10389954;28;20299;-60
2023/03/21 07:55:21;;;;;;;9.27;7.00;;;;;;;5.89;100.00;96578.69;10385121;28;20570;-60
2023/03/21 08:00:22;;;;;;;11.03;7.47;;;;;;;6.28;100.00;96565.00;10401371;28;20234;-59
2023/03/21 08:05:23;;;;;;;13.07;5.70;;;;;;;6.38;100.00;96574.47;10403820;28;20197;-61
2023/03/21 08:10:24;;;;;;;9.73;5.10;;;;;;;6.68;100.00;96564.94;10410225;28;20590;-62
2023/03/21 08:15:24;;;;;;;6.07;3.97;;;;;;;7.36;100.00;96560.66;10415093;28;20189;-62
2023/03/21 08:20:25;;;;;;;6.33;5.63;;;;;;;6.92;100.00;96556.75;10381848;28;984691;-63
2023/03/21 08:25:25;;;;;;;6.67;4.93;;;;;;;7.25;100.00;96565.06;10416607;28;20200;-63
2023/03/21 08:30:27;;;;;;;6.23;4.80;;;;;;;6.94;100.00;96567.84;10408813;28;20790;-62
2023/03/21 08:35:28;;;;;;;4.77;3.80;;;;;;;7.22;100.00;96564.53;10416864;28;20200;-63
2023/03/21 08:40:28;;;;;;;3.90;3.47;;;;;;;7.54;100.00;96552.97;10416568;28;20251;-63
2023/03/21 08:45:29;;;;;;;4.97;3.40;;;;;;;8.12;100.00;96560.56;10416543;28;20196;-62
2023/03/21 08:50:30;;;;;;;5.17;3.80;;;;;;;7.91;100.00;96554.75;10406768;28;20213;-61
2023/03/21 08:55:32;;;;;;;4.33;3.57;;;;;;;7.64;100.00;96557.19;10408167;28;20207;-64
2023/03/21 09:00:32;;;;;;;4.97;3.20;;;;;;;7.36;100.00;96556.28;10407599;28;20240;-63
2023/03/21 09:05:32;;;;;;;5.20;3.10;;;;;;;7.43;100.00;96567.78;10409461;28;20189;-62
2023/03/21 09:10:33;;;;;;;3.30;2.90;;;;;;;7.97;100.00;96564.59;10415403;28;20244;-62
2023/03/21 09:15:34;;;;;;;4.37;3.27;;;;;;;8.10;100.00;96562.50;10415461;28;20738;-59
2023/03/21 09:20:37;;;;;;;5.17;2.60;;;;;;;8.16;100.00;96541.03;10412364;28;20263;-61
2023/03/21 09:25:37;;;;;;;3.57;2.63;;;;;;;8.74;100.00;96562.53;10401987;28;20248;-63
2023/03/21 09:30:38;;;;;;;4.57;2.93;;;;;;;9.06;100.00;96550.75;10383787;28;20201;-63
2023/03/21 09:35:39;;;;;;;2.23;1.90;;;;;;;8.97;100.00;96546.44;10415153;28;20216;-61
2023/03/21 09:41:15;;;;;;;2.90;2.00;;;;;;;8.82;100.00;96546.13;10414082;28;20224;-61
2023/03/21 09:46:20;;;;;;;3.67;1.90;;;;;;;9.00;100.00;96525.22;10394941;28;20220;-62
2023/03/21 09:51:22;;;;;;;1.67;1.57;;;;;;;8.92;100.00;96521.56;10407976;28;20299;-63
2023/03/21 09:56:24;;;;;;;2.13;1.63;;;;;;;9.34;100.00;96511.41;10413822;28;20208;-62
2023/03/21 10:01:28;;;;;;;2.17;1.97;;;;;;;9.25;100.00;96502.72;10404285;28;20295;-62
2023/03/21 10:06:30;;;;;;;1.77;1.60;;;;;;;10.11;100.00;96504.44;10405738;28;20238;-61
2023/03/21 10:11:38;;;;;;;2.40;1.70;;;;;;;10.70;96.95;96478.25;10404900;28;20204;-60
2023/03/21 10:16:48;;;;;;;3.63;2.10;;;;;;;9.95;100.00;96509.59;10407512;28;20335;-58
2023/03/21 10:21:49;;;;;;;5.40;1.93;;;;;;;9.34;100.00;96511.41;10385086;28;20236;-60
2023/03/21 10:26:51;;;;;;;2.20;2.00;;;;;;;10.77;99.93;96488.88;10367536;28;20193;-60
2023/03/21 10:31:53;;;;;;;2.55;1.80;;;;;;;10.26;98.49;96480.25;10396033;28;20273;-59
2023/03/21 10:36:53;;;;;;;4.15;1.63;;;;;;;10.35;98.27;96474.09;10396113;28;20200;-60
2023/03/21 10:41:54;;;;;;;2.23;1.60;;;;;;;10.53;95.83;96461.69;10375627;28;20232;-61
2023/03/21 10:46:57;;;;;;;3.47;1.67;;;;;;;11.28;95.05;96466.91;10392975;28;20192;-62
2023/03/21 10:52:01;;;;;;;4.40;3.38;;;;;;;10.87;95.18;96463.34;10384833;28;20223;-61
2023/03/21 10:57:18;;;;;;;2.97;1.90;;;;;;;11.37;91.58;96437.84;10480698;27;20572;-61
2023/03/21 11:02:24;;;;;;;3.35;1.42;;;;;;;11.12;90.09;96423.16;10466429;28;20756;-61
2023/03/21 11:07:29;;;;;;;1.40;1.30;;;;;;;11.47;89.40;96421.09;10461633;28;20194;-60
2023/03/21 11:12:38;;;;;;;1.13;1.00;;;;;;;11.37;87.32;96410.81;10476845;28;20766;-61
2023/03/21 11:17:38;;;;;;;2.00;1.30;;;;;;;11.05;89.88;96430.88;10449333;28;20211;-60
2023/03/21 11:22:42;;;;;;;1.27;1.17;;;;;;;11.55;86.49;96397.47;10480313;28;20260;-61
2023/03/21 11:27:50;;;;;;;1.40;1.20;;;;;;;12.17;83.54;96385.38;10473523;28;20192;-60
2023/03/21 11:33:02;;;;;;;0.80;0.80;;;;;;;11.02;86.22;96405.00;10441752;28;20714;-61
2023/03/21 11:38:03;;;;;;;1.55;0.93;;;;;;;11.18;87.98;96412.00;10479522;28;20245;-60
2023/03/21 11:43:26;;;;;;;0.77;0.77;;;;;;;12.21;84.56;96391.91;10465359;28;20717;-62
2023/03/21 11:48:27;;;;;;;1.60;0.90;;;;;;;11.07;85.51;96374.69;10455994;28;20227;-62
2023/03/21 11:53:31;;;;;;;0.80;0.80;;;;;;;12.91;78.43;96313.78;10502911;28;20269;-59
2023/03/21 11:58:37;;;;;;;1.13;0.80;;;;;;;12.79;79.01;96335.25;10449281;28;20224;-60
2023/03/21 12:03:56;;;;;;;0.98;0.90;;;;;;;12.24;81.50;96349.53;10475951;28;20196;-62
2023/03/21 12:09:25;;;;;;;0.70;0.70;;;;;;;14.14;73.13;96256.88;10436011;28;20212;-62
2023/03/21 12:14:38;;;;;;;1.27;0.60;;;;;;;13.50;74.38;96281.38;10439909;28;20224;-62
2023/03/21 12:19:53;;;;;;;0.85;0.50;;;;;;;14.41;74.08;96283.41;10427725;28;20300;-62
2023/03/21 12:24:57;;;;;;;1.00;0.50;;;;;;;15.40;68.88;96231.44;10442416;28;20192;-61
2023/03/21 12:30:03;;;;;;;1.00;0.55;;;;;;;16.01;66.06;96212.06;10414590;28;20224;-63
2023/03/21 12:35:13;;;;;;;0.70;0.65;;;;;;;16.00;64.65;96195.41;10411590;28;20252;-61
2023/03/21 12:40:40;;;;;;;0.70;0.70;;;;;;;15.74;68.02;96253.44;10479149;28;20222;-62
2023/03/21 12:45:41;;;;;;;0.77;0.70;;;;;;;15.94;66.27;96229.72;10469606;28;20207;-62
2023/03/21 12:50:43;;;;;;;0.88;0.77;;;;;;;14.69;68.43;96241.28;10451467;28;20312;-61
2023/03/21 12:55:44;;;;;;;0.60;0.60;;;;;;;14.68;69.75;96258.09;10451877;28;20234;-61
2023/03/21 13:00:51;;;;;;;1.95;0.90;;;;;;;15.04;69.00;96240.41;10451520;28;20215;-60
2023/03/21 13:06:03;;;;;;;3.03;0.90;;;;;;;13.95;71.86;96268.88;10424207;28;20671;-62
2023/03/21 13:11:05;;;;;;;1.40;1.08;;;;;;;14.24;72.34;96272.34;10422380;28;20577;-60
2023/03/21 13:16:12;;;;;;;0.80;0.80;;;;;;;12.32;76.80;96297.75;10438728;28;20301;-62
2023/03/21 13:21:24;;;;;;;1.00;0.90;;;;;;;13.07;74.84;96261.00;10438349;28;20227;-61
2023/03/21 13:26:32;;;;;;;1.60;0.90;;;;;;;13.72;75.34;96272.50;10438936;28;20208;-62
2023/03/21 13:31:34;;;;;;;0.80;0.80;;;;;;;13.25;77.37;96299.28;10442435;28;20327;-62
2023/03/21 13:36:37;;;;;;;2.08;1.20;;;;;;;13.99;73.29;96232.44;10442449;28;20235;-60
2023/03/21 13:41:38;;;;;;;1.42;1.10;;;;;;;14.95;70.24;96208.13;10430615;28;20227;-61
2023/03/21 13:46:44;;;;;;;0.80;0.80;;;;;;;15.06;69.27;96194.38;10447143;28;20273;-62
2023/03/21 13:51:52;;;;;;;1.70;0.90;;;;;;;15.25;70.38;96229.78;10419483;28;20215;-61
2023/03/21 13:56:56;;;;;;;1.52;0.90;;;;;;;13.54;72.99;96243.97;10421431;28;20293;-60
2023/03/21 14:02:03;;;;;;;1.10;1.00;;;;;;;15.00;70.97;96223.38;10419145;28;20266;-62
2023/03/21 14:07:19;;;;;;;0.80;0.70;;;;;;;15.23;69.17;96197.47;10426480;28;20192;-60
2023/03/21 14:12:25;;;;;;;1.02;0.57;;;;;;;15.17;68.27;96182.44;10422889;28;20214;-62
2023/03/21 14:17:30;;;;;;;0.77;0.77;;;;;;;15.40;67.62;96178.66;10433785;28;20196;-61
2023/03/21 14:22:32;;;;;;;1.10;0.75;;;;;;;13.87;70.45;96196.09;10452196;23;20228;-61
2023/03/21 14:27:33;;;;;;;3.20;2.45;;;;;;;14.80;69.37;96181.91;10438897;28;20202;-57
2023/03/21 14:32:34;;;;;;;0.90;0.90;;;;;;;13.66;70.15;96169.75;10438052;28;20537;-60
2023/03/21 14:37:40;;;;;;;0.82;0.80;;;;;;;14.10;69.48;96150.25;10406076;28;20205;-61
2023/03/21 14:42:45;;;;;;;1.00;0.90;;;;;;;14.46;69.95;96170.34;10405392;28;20774;-61
2023/03/21 14:48:06;;;;;;;2.75;1.05;;;;;;;14.13;69.69;96156.97;10399784;28;20354;-61
2023/03/21 14:53:10;;;;;;;1.77;1.08;;;;;;;14.73;69.34;96159.97;10389877;28;20872;-60
2023/03/21 14:58:13;;;;;;;3.22;2.00;;;;;;;14.40;70.41;96165.84;10384380;28;20292;-60
2023/03/21 15:03:16;;;;;;;7.88;4.30;;;;;;;13.60;73.14;96194.19;10405855;28;20281;-61
2023/03/21 15:08:18;;;;;;;10.13;6.82;;;;;;;12.99;75.50;96222.47;10402682;28;20291;-61
2023/03/21 15:13:19;;;;;;;33.60;21.27;;;;;;;12.67;77.45;96231.56;10418822;28;20651;-60
2023/03/21 15:18:28;;;;;;;2.30;2.10;;;;;;;12.32;80.54;96260.97;10406792;28;20692;-58
2023/03/21 15:23:32;;;;;;;3.83;2.70;;;;;;;12.28;80.99;96257.09;10400246;28;20306;-60
2023/03/21 15:28:33;;;;;;;7.45;3.83;;;;;;;12.18;82.30;96246.00;10383182;28;20748;-60
2023/03/21 15:33:34;;;;;;;2.08;1.55;;;;;;;12.39;81.41;96226.94;10398736;28;20381;-59
2023/03/21 15:38:40;;;;;;;1.67;1.48;;;;;;;13.07;79.90;96212.84;10407026;28;20918;-61
2023/03/21 15:43:41;;;;;;;1.48;1.27;;;;;;;13.34;77.30;96182.44;10399438;28;20227;-61
2023/03/21 15:48:41;;;;;;;3.92;2.88;;;;;;;13.32;77.86;96187.84;10418101;28;20200;-59
2023/03/21 15:53:42;;;;;;;1.38;1.00;;;;;;;13.31;77.90;96188.03;10419527;28;20224;-58
2023/03/21 15:58:44;;;;;;;1.75;1.30;;;;;;;12.95;78.18;96184.38;10410449;28;20209;-60
2023/03/21 16:03:46;;;;;;;4.55;1.77;;;;;;;12.94;79.76;96202.97;10407471;28;20639;-60
2023/03/21 16:08:52;;;;;;;3.10;1.52;;;;;;;13.32;78.17;96187.03;10431925;28;20180;-61
2023/03/21 16:13:53;;;;;;;3.03;1.40;;;;;;;13.82;76.17;96164.22;10414372;28;20219;-61
2023/03/21 16:18:54;;;;;;;3.67;1.20;;;;;;;13.66;76.03;96164.50;10430837;28;20258;-60
2023/03/21 16:23:55;;;;;;;3.53;1.42;;;;;;;13.30;77.27;96175.88;10426664;28;20231;-61
2023/03/21 16:28:56;;;;;;;3.67;1.27;;;;;;;12.54;79.49;96191.97;10407917;28;20755;-62
2023/03/21 16:33:56;;;;;;;5.28;2.15;;;;;;;12.62;81.27;96215.53;10424758;28;20298;-61
2023/03/21 16:38:57;;;;;;;51.90;31.40;;;;;;;12.48;82.31;96223.22;10450730;28;20287;-62
2023/03/21 16:43:58;;;;;;;8.90;5.88;;;;;;;11.78;86.55;96247.94;10451852;28;20204;-62
2023/03/21 16:48:58;;;;;;;10.60;9.50;;;;;;;11.37;89.43;96267.38;10429417;28;20293;-62
2023/03/21 16:53:59;;;;;;;2.55;2.03;;;;;;;11.17;92.67;96261.75;10418413;28;20670;-61
2023/03/21 16:58:59;;;;;;;4.70;3.80;;;;;;;11.00;95.82;96266.25;10409460;28;20606;-62
2023/03/21 17:04:00;;;;;;;4.63;2.78;;;;;;;11.27;97.77;96263.34;10407580;28;20997;-62
2023/03/21 17:09:01;;;;;;;12.90;6.47;;;;;;;11.38;96.91;96258.53;10409359;28;20219;-62
2023/03/21 17:14:01;;;;;;;6.88;4.50;;;;;;;11.40;97.63;96260.97;10409086;28;20694;-61
2023/03/21 17:19:03;;;;;;;4.82;1.88;;;;;;;11.32;98.32;96251.34;10405388;28;20200;-62
2023/03/21 17:24:03;;;;;;;3.40;2.78;;;;;;;11.12;97.35;96250.13;10411493;28;20239;-61
2023/03/21 17:29:04;;;;;;;4.63;2.00;;;;;;;10.93;97.91;96241.69;10420071;28;20572;-61
2023/03/21 17:34:04;;;;;;;4.78;3.08;;;;;;;10.90;98.67;96244.66;10407877;28;20239;-61
2023/03/21 17:39:07;;;;;;;4.33;3.27;;;;;;;10.69;100.00;96260.97;10408457;28;20207;-60
2023/03/21 17:44:08;;;;;;;4.50;2.93;;;;;;;10.55;100.00;96259.84;10408703;28;20699;-61
2023/03/21 17:49:13;;;;;;;5.70;3.20;;;;;;;10.48;100.00;96246.59;10408339;28;20185;-61
2023/03/21 17:54:13;;;;;;;4.33;2.53;;;;;;;10.45;100.00;96243.50;10433118;28;20263;-61
2023/03/21 17:59:14;;;;;;;6.45;2.33;;;;;;;10.49;100.00;96231.69;10443886;28;20199;-60
2023/03/21 18:04:14;;;;;;;3.00;2.70;;;;;;;10.45;100.00;96233.03;10442471;28;20217;-59
2023/03/21 18:09:16;;;;;;;4.20;2.57;;;;;;;10.35;100.00;96243.66;10407165;28;20200;-60
2023/03/21 18:14:18;;;;;;;6.60;2.87;;;;;;;10.39;100.00;96239.75;10406662;28;20228;-60
2023/03/21 18:19:18;;;;;;;3.57;2.67;;;;;;;10.30;100.00;96241.53;10403604;28;20185;-61
2023/03/21 18:24:19;;;;;;;7.40;5.63;;;;;;;10.20;100.00;96237.44;10403839;28;20228;-61
2023/03/21 18:29:19;;;;;;;6.43;3.20;;;;;;;9.98;100.00;96248.44;10406018;28;20335;-61
2023/03/21 18:34:20;;;;;;;8.67;3.07;;;;;;;10.15;100.00;96240.56;10405660;28;20233;-61
2023/03/21 18:39:21;;;;;;;5.73;3.27;;;;;;;10.22;100.00;96233.69;10407271;28;20911;-57
2023/03/21 18:44:24;;;;;;;7.20;3.20;;;;;;;10.27;99.49;96238.44;10403672;28;20212;-61
2023/03/21 18:49:24;;;;;;;3.80;3.07;;;;;;;10.26;98.91;96229.78;10407284;28;20283;-60
2023/03/21 18:54:25;;;;;;;9.93;3.90;;;;;;;10.20;100.00;96245.31;10406973;28;20223;-61
2023/03/21 18:59:26;;;;;;;6.47;3.40;;;;;;;10.23;99.23;96240.56;10410929;28;20208;-60
2023/03/21 19:04:26;;;;;;;5.20;3.30;;;;;;;10.29;97.90;96239.06;10410648;28;20217;-61
2023/03/21 19:09:26;;;;;;;5.00;3.27;;;;;;;10.25;97.17;96237.78;10419049;28;20650;-61
2023/03/21 19:14:27;;;;;;;7.37;2.90;;;;;;;10.32;97.19;96238.75;10407883;28;20597;-62
2023/03/21 19:19:28;;;;;;;3.30;2.40;;;;;;;10.30;96.54;96235.47;10434251;28;20654;-61
2023/03/21 19:24:28;;;;;;;3.50;2.70;;;;;;;10.36;95.22;96224.38;10442756;28;21094;-61
2023/03/21 19:29:29;;;;;;;7.63;3.13;;;;;;;10.23;95.41;96234.50;10422217;28;20211;-60
2023/03/21 19:34:29;;;;;;;4.90;3.00;;;;;;;10.35;94.80;96233.19;10414002;28;20225;-61
2023/03/21 19:39:29;;;;;;;7.03;2.87;;;;;;;10.27;94.67;96230.56;10413939;28;20239;-59
2023/03/21 19:44:31;;;;;;;6.80;4.17;;;;;;;9.87;96.22;96237.50;10418455;28;20235;-60
2023/03/21 19:49:31;;;;;;;5.63;3.27;;;;;;;9.79;97.13;96233.88;10454638;28;20195;-60
2023/03/21 19:54:36;;;;;;;4.23;3.03;;;;;;;9.94;95.43;96225.41;10424795;28;20226;-60
2023/03/21 19:59:37;;;;;;;9.67;4.97;;;;;;;9.71;96.09;96233.88;10431103;28;20181;-59
2023/03/21 20:04:38;;;;;;;4.33;3.37;;;;;;;9.27;99.67;96250.66;10430347;28;20254;-60
2023/03/21 20:09:38;;;;;;;5.77;3.17;;;;;;;8.93;100.00;96259.34;10427886;28;20196;-59
2023/03/21 20:14:40;;;;;;;5.20;3.43;;;;;;;8.85;100.00;96264.56;10412459;28;20236;-59
2023/03/21 20:19:40;;;;;;;6.80;2.47;;;;;;;9.04;100.00;96273.94;10411460;28;20196;-61
2023/03/21 20:24:42;;;;;;;5.93;2.80;;;;;;;9.14;100.00;96260.72;10412159;28;20260;-58
2023/03/21 20:29:42;;;;;;;8.17;5.20;;;;;;;8.95;100.00;96258.41;10410844;28;20681;-61
2023/03/21 20:34:43;;;;;;;10.40;3.70;;;;;;;8.97;100.00;96266.88;10426633;22;20242;-60
2023/03/21 20:39:43;;;;;;;5.70;3.40;;;;;;;8.89;100.00;96268.47;10414850;28;20200;-60
2023/03/21 20:44:43;;;;;;;5.97;2.90;;;;;;;8.76;100.00;96262.88;10414554;28;20200;-62
2023/03/21 20:49:44;;;;;;;9.20;3.27;;;;;;;8.60;100.00;96268.03;10414359;28;20181;-60
2023/03/21 20:54:46;;;;;;;6.83;4.47;;;;;;;8.71;100.00;96270.34;10414119;28;20236;-60
2023/03/21 20:59:46;;;;;;;5.30;3.40;;;;;;;8.84;100.00;96268.13;10414005;28;20207;-61
2023/03/21 21:04:48;;;;;;;5.00;3.20;;;;;;;8.74;100.00;96276.09;10396277;28;20725;-61
2023/03/21 21:09:49;;;;;;;5.70;2.90;;;;;;;8.69;100.00;96267.09;10396686;28;21149;-61
2023/03/21 21:14:49;;;;;;;4.50;3.30;;;;;;;8.62;100.00;96266.06;10393388;28;20275;-61
2023/03/21 21:19:49;;;;;;;6.53;3.53;;;;;;;8.80;100.00;96274.63;10372725;28;20244;-61
2023/03/21 21:24:50;;;;;;;6.10;3.10;;;;;;;8.81;100.00;96267.63;10372671;28;20798;-59
2023/03/21 21:29:51;;;;;;;15.83;4.10;;;;;;;8.69;100.00;96269.69;10372407;28;20695;-61
2023/03/21 21:34:52;;;;;;;5.67;3.00;;;;;;;8.66;100.00;96273.44;10409666;28;20242;-60
2023/03/21 21:39:52;;;;;;;9.40;3.33;;;;;;;8.63;100.00;96276.34;10412082;28;20231;-61
2023/03/21 21:44:53;;;;;;;6.73;3.10;;;;;;;8.57;100.00;96272.59;10412845;28;20208;-61
2023/03/21 21:49:53;;;;;;;4.37;2.50;;;;;;;8.53;100.00;96273.88;10412610;28;20204;-63
2023/03/21 21:54:54;;;;;;;7.93;3.17;;;;;;;8.43;100.00;96283.56;10412382;28;20239;-61
2023/03/21 21:59:54;;;;;;;4.63;2.90;;;;;;;8.29;100.00;96291.94;10380604;28;20284;-60
2023/03/21 22:04:55;;;;;;;6.47;2.33;;;;;;;7.99;100.00;96291.38;10371036;28;20586;-62
2023/03/21 22:09:56;;;;;;;3.90;2.77;;;;;;;8.20;100.00;96298.88;10371219;28;20202;-62
2023/03/21 22:14:56;;;;;;;4.87;2.97;;;;;;;8.30;100.00;96301.41;10370818;28;20316;-63
2023/03/21 22:19:57;;;;;;;10.43;4.43;;;;;;;8.53;100.00;96299.97;10371787;28;20309;-63
2023/03/21 22:24:57;;;;;;;10.03;4.50;;;;;;;8.50;100.00;96305.50;10411529;28;20331;-61
2023/03/21 22:30:03;;;;;;;13.97;5.40;;;;;;;8.51;100.00;96306.31;10411158;28;20205;-62
2023/03/21 22:35:05;;;;;;;10.07;5.77;;;;;;;8.28;100.00;96316.41;10410798;28;20230;-63
2023/03/21 22:40:08;;;;;;;9.37;5.20;;;;;;;8.21;100.00;96314.41;10410995;28;20276;-61
2023/03/21 22:45:11;;;;;;;11.60;5.50;;;;;;;8.06;100.00;96309.88;10410667;28;20295;-60
2023/03/21 22:50:11;;;;;;;7.27;4.60;;;;;;;8.04;100.00;96313.44;10410509;28;20200;-61
2023/03/21 22:55:13;;;;;;;7.20;4.20;;;;;;;7.91;100.00;96309.59;10410541;28;20576;-63
2023/03/21 23:00:13;;;;;;;14.67;4.97;;;;;;;7.75;100.00;96311.06;10406566;28;20206;-63
2023/03/21 23:05:14;;;;;;;8.67;5.30;;;;;;;7.69;100.00;96319.50;10357875;28;20220;-63
2023/03/21 23:10:14;;;;;;;10.07;5.80;;;;;;;7.68;100.00;96315.22;10407639;28;20671;-62
2023/03/21 23:15:15;;;;;;;13.73;6.10;;;;;;;7.57;100.00;96316.28;10378009;28;20236;-62
2023/03/21 23:20:15;;;;;;;11.40;5.83;;;;;;;7.52;100.00;96315.91;10369156;28;20228;-62